sensor_id;sensor_type;location;lat;lon;timestamp;P1;durP1;ratioP1;P2;durP2;ratioP2
5285;SDS011;2665;53.112;7.358;2023-07-13T00:00:22;2.50;;;1.67;;
5285;SDS011;2665;53.112;7.358;2023-07-13T00:02:49;3.60;;;1.80;;
5285;SDS011;2665;53.112;7.358;2023-07-13T00:05:16;3.77;;;1.50;;
5285;SDS011;2665;53.112;7.358;2023-07-13T00:07:42;2.60;;;1.30;;
5285;SDS011;2665;53.112;7.358;2023-07-13T00:10:11;4.40;;;1.50;;
5285;SDS011;2665;53.112;7.358;2023-07-13T00:12:37;4.47;;;1.80;;
5285;SDS011;2665;53.112;7.358;2023-07-13T00:15:05;2.13;;;1.37;;
5285;SDS011;2665;53.112;7.358;2023-07-13T00:17:31;2.53;;;1.77;;
5285;SDS011;2665;53.112;7.358;2023-07-13T00:19:57;3.60;;;1.50;;
5285;SDS011;2665;53.112;7.358;2023-07-13T00:22:24;2.60;;;1.37;;
5285;SDS011;2665;53.112;7.358;2023-07-13T00:24:53;2.30;;;1.33;;
5285;SDS011;2665;53.112;7.358;2023-07-13T00:27:23;3.40;;;1.80;;
5285;SDS011;2665;53.112;7.358;2023-07-13T00:29:51;3.37;;;1.90;;
5285;SDS011;2665;53.112;7.358;2023-07-13T00:32:18;4.87;;;1.40;;
5285;SDS011;2665;53.112;7.358;2023-07-13T00:34:44;5.03;;;1.80;;
5285;SDS011;2665;53.112;7.358;2023-07-13T00:37:10;6.63;;;1.30;;
5285;SDS011;2665;53.112;7.358;2023-07-13T00:39:36;4.33;;;1.33;;
5285;SDS011;2665;53.112;7.358;2023-07-13T00:42:03;2.20;;;1.10;;
5285;SDS011;2665;53.112;7.358;2023-07-13T00:44:29;2.97;;;1.53;;
5285;SDS011;2665;53.112;7.358;2023-07-13T00:46:55;4.23;;;1.10;;
5285;SDS011;2665;53.112;7.358;2023-07-13T00:49:24;4.73;;;2.20;;
5285;SDS011;2665;53.112;7.358;2023-07-13T00:51:55;4.37;;;1.00;;
5285;SDS011;2665;53.112;7.358;2023-07-13T00:54:29;2.27;;;1.20;;
5285;SDS011;2665;53.112;7.358;2023-07-13T00:56:57;4.53;;;1.40;;
5285;SDS011;2665;53.112;7.358;2023-07-13T00:59:25;3.77;;;1.70;;
5285;SDS011;2665;53.112;7.358;2023-07-13T01:01:51;7.27;;;2.07;;
5285;SDS011;2665;53.112;7.358;2023-07-13T01:04:17;3.13;;;1.40;;
5285;SDS011;2665;53.112;7.358;2023-07-13T01:06:43;3.50;;;1.20;;
5285;SDS011;2665;53.112;7.358;2023-07-13T01:09:09;2.77;;;1.30;;
5285;SDS011;2665;53.112;7.358;2023-07-13T01:11:36;4.83;;;1.50;;
5285;SDS011;2665;53.112;7.358;2023-07-13T01:14:03;5.43;;;1.60;;
5285;SDS011;2665;53.112;7.358;2023-07-13T01:16:30;2.93;;;1.20;;
5285;SDS011;2665;53.112;7.358;2023-07-13T01:18:56;6.03;;;1.07;;
5285;SDS011;2665;53.112;7.358;2023-07-13T01:21:23;5.90;;;1.80;;
5285;SDS011;2665;53.112;7.358;2023-07-13T01:23:49;6.57;;;1.50;;
5285;SDS011;2665;53.112;7.358;2023-07-13T01:26:16;13.67;;;2.23;;
5285;SDS011;2665;53.112;7.358;2023-07-13T01:28:42;6.20;;;1.60;;
5285;SDS011;2665;53.112;7.358;2023-07-13T01:31:09;10.07;;;1.67;;
5285;SDS011;2665;53.112;7.358;2023-07-13T01:33:36;4.93;;;1.80;;
5285;SDS011;2665;53.112;7.358;2023-07-13T01:36:04;10.10;;;2.60;;
5285;SDS011;2665;53.112;7.358;2023-07-13T01:38:30;16.77;;;2.00;;
5285;SDS011;2665;53.112;7.358;2023-07-13T01:40:56;6.53;;;1.50;;
5285;SDS011;2665;53.112;7.358;2023-07-13T01:43:22;3.93;;;1.57;;
5285;SDS011;2665;53.112;7.358;2023-07-13T01:45:49;3.57;;;1.20;;
5285;SDS011;2665;53.112;7.358;2023-07-13T01:48:15;5.00;;;2.00;;
5285;SDS011;2665;53.112;7.358;2023-07-13T01:50:41;8.30;;;1.80;;
5285;SDS011;2665;53.112;7.358;2023-07-13T01:53:07;6.23;;;1.60;;
5285;SDS011;2665;53.112;7.358;2023-07-13T01:55:33;9.03;;;1.90;;
5285;SDS011;2665;53.112;7.358;2023-07-13T01:58:00;5.90;;;1.60;;
5285;SDS011;2665;53.112;7.358;2023-07-13T02:00:26;5.93;;;1.57;;
5285;SDS011;2665;53.112;7.358;2023-07-13T02:02:52;7.83;;;3.50;;
5285;SDS011;2665;53.112;7.358;2023-07-13T02:05:18;3.93;;;1.60;;
5285;SDS011;2665;53.112;7.358;2023-07-13T02:07:44;5.00;;;2.00;;
5285;SDS011;2665;53.112;7.358;2023-07-13T02:10:11;4.77;;;1.60;;
5285;SDS011;2665;53.112;7.358;2023-07-13T02:12:37;7.17;;;1.83;;
5285;SDS011;2665;53.112;7.358;2023-07-13T02:15:04;8.33;;;1.43;;
5285;SDS011;2665;53.112;7.358;2023-07-13T02:17:30;6.10;;;1.80;;
5285;SDS011;2665;53.112;7.358;2023-07-13T02:19:57;3.40;;;1.67;;
5285;SDS011;2665;53.112;7.358;2023-07-13T02:22:23;8.33;;;1.73;;
5285;SDS011;2665;53.112;7.358;2023-07-13T02:24:49;6.23;;;1.87;;
5285;SDS011;2665;53.112;7.358;2023-07-13T02:27:15;3.17;;;1.30;;
5285;SDS011;2665;53.112;7.358;2023-07-13T02:29:41;8.03;;;1.83;;
5285;SDS011;2665;53.112;7.358;2023-07-13T02:32:07;7.60;;;1.73;;
5285;SDS011;2665;53.112;7.358;2023-07-13T02:34:34;9.10;;;1.57;;
5285;SDS011;2665;53.112;7.358;2023-07-13T02:37:00;5.53;;;1.70;;
5285;SDS011;2665;53.112;7.358;2023-07-13T02:39:26;4.40;;;1.50;;
5285;SDS011;2665;53.112;7.358;2023-07-13T02:41:52;4.53;;;2.10;;
5285;SDS011;2665;53.112;7.358;2023-07-13T02:44:18;6.30;;;1.60;;
5285;SDS011;2665;53.112;7.358;2023-07-13T02:46:44;3.70;;;1.37;;
5285;SDS011;2665;53.112;7.358;2023-07-13T02:49:10;6.70;;;1.63;;
5285;SDS011;2665;53.112;7.358;2023-07-13T02:51:36;5.60;;;1.50;;
5285;SDS011;2665;53.112;7.358;2023-07-13T02:54:03;4.67;;;1.60;;
5285;SDS011;2665;53.112;7.358;2023-07-13T02:56:30;5.17;;;1.30;;
5285;SDS011;2665;53.112;7.358;2023-07-13T02:58:56;7.10;;;1.70;;
5285;SDS011;2665;53.112;7.358;2023-07-13T03:01:22;6.10;;;1.47;;
5285;SDS011;2665;53.112;7.358;2023-07-13T03:03:49;3.40;;;1.70;;
5285;SDS011;2665;53.112;7.358;2023-07-13T03:06:15;3.80;;;1.60;;
5285;SDS011;2665;53.112;7.358;2023-07-13T03:08:42;8.67;;;1.70;;
5285;SDS011;2665;53.112;7.358;2023-07-13T03:11:10;6.10;;;2.03;;
5285;SDS011;2665;53.112;7.358;2023-07-13T03:13:36;5.63;;;1.67;;
5285;SDS011;2665;53.112;7.358;2023-07-13T03:16:03;2.80;;;1.37;;
5285;SDS011;2665;53.112;7.358;2023-07-13T03:18:29;7.43;;;1.73;;
5285;SDS011;2665;53.112;7.358;2023-07-13T03:20:55;5.10;;;1.40;;
5285;SDS011;2665;53.112;7.358;2023-07-13T03:23:22;4.10;;;1.60;;
5285;SDS011;2665;53.112;7.358;2023-07-13T03:25:48;3.93;;;1.57;;
5285;SDS011;2665;53.112;7.358;2023-07-13T03:28:14;6.80;;;1.60;;
5285;SDS011;2665;53.112;7.358;2023-07-13T03:30:41;3.60;;;1.90;;
5285;SDS011;2665;53.112;7.358;2023-07-13T03:33:07;7.53;;;2.30;;
5285;SDS011;2665;53.112;7.358;2023-07-13T03:35:34;8.07;;;1.57;;
5285;SDS011;2665;53.112;7.358;2023-07-13T03:38:00;10.83;;;3.37;;
5285;SDS011;2665;53.112;7.358;2023-07-13T03:40:27;10.57;;;1.20;;
5285;SDS011;2665;53.112;7.358;2023-07-13T03:42:53;2.73;;;1.20;;
5285;SDS011;2665;53.112;7.358;2023-07-13T03:45:19;10.90;;;2.00;;
5285;SDS011;2665;53.112;7.358;2023-07-13T03:47:45;4.10;;;1.50;;
5285;SDS011;2665;53.112;7.358;2023-07-13T03:50:11;5.23;;;1.97;;
5285;SDS011;2665;53.112;7.358;2023-07-13T03:52:37;6.63;;;1.50;;
5285;SDS011;2665;53.112;7.358;2023-07-13T03:55:04;9.47;;;2.00;;
5285;SDS011;2665;53.112;7.358;2023-07-13T03:57:31;8.40;;;1.63;;
5285;SDS011;2665;53.112;7.358;2023-07-13T03:59:57;8.17;;;1.60;;
5285;SDS011;2665;53.112;7.358;2023-07-13T04:02:23;15.33;;;1.80;;
5285;SDS011;2665;53.112;7.358;2023-07-13T04:04:49;4.73;;;1.53;;
5285;SDS011;2665;53.112;7.358;2023-07-13T04:07:15;10.00;;;2.07;;
5285;SDS011;2665;53.112;7.358;2023-07-13T04:09:41;11.50;;;1.97;;
5285;SDS011;2665;53.112;7.358;2023-07-13T04:12:08;13.63;;;2.80;;
5285;SDS011;2665;53.112;7.358;2023-07-13T04:14:34;4.40;;;1.67;;
5285;SDS011;2665;53.112;7.358;2023-07-13T04:17:00;9.37;;;2.00;;
5285;SDS011;2665;53.112;7.358;2023-07-13T04:19:26;5.50;;;1.50;;
5285;SDS011;2665;53.112;7.358;2023-07-13T04:21:52;6.77;;;1.83;;
5285;SDS011;2665;53.112;7.358;2023-07-13T04:24:18;8.77;;;2.20;;
5285;SDS011;2665;53.112;7.358;2023-07-13T04:26:44;4.63;;;1.57;;
5285;SDS011;2665;53.112;7.358;2023-07-13T04:29:10;7.00;;;2.10;;
5285;SDS011;2665;53.112;7.358;2023-07-13T04:31:36;10.80;;;2.40;;
5285;SDS011;2665;53.112;7.358;2023-07-13T04:34:02;6.30;;;2.27;;
5285;SDS011;2665;53.112;7.358;2023-07-13T04:36:28;9.93;;;2.00;;
5285;SDS011;2665;53.112;7.358;2023-07-13T04:38:54;3.77;;;2.27;;
5285;SDS011;2665;53.112;7.358;2023-07-13T04:41:21;7.00;;;1.90;;
5285;SDS011;2665;53.112;7.358;2023-07-13T04:43:47;6.20;;;1.90;;
5285;SDS011;2665;53.112;7.358;2023-07-13T04:46:14;9.63;;;2.00;;
5285;SDS011;2665;53.112;7.358;2023-07-13T04:48:42;6.10;;;1.80;;
5285;SDS011;2665;53.112;7.358;2023-07-13T04:51:08;5.07;;;2.13;;
5285;SDS011;2665;53.112;7.358;2023-07-13T04:53:35;5.30;;;2.00;;
5285;SDS011;2665;53.112;7.358;2023-07-13T04:56:01;10.80;;;3.17;;
5285;SDS011;2665;53.112;7.358;2023-07-13T04:58:28;5.70;;;2.00;;
5285;SDS011;2665;53.112;7.358;2023-07-13T05:00:59;8.23;;;2.07;;
5285;SDS011;2665;53.112;7.358;2023-07-13T05:03:25;9.20;;;2.20;;
5285;SDS011;2665;53.112;7.358;2023-07-13T05:05:58;8.50;;;2.03;;
5285;SDS011;2665;53.112;7.358;2023-07-13T05:08:24;5.57;;;2.10;;
5285;SDS011;2665;53.112;7.358;2023-07-13T05:10:51;6.10;;;1.83;;
5285;SDS011;2665;53.112;7.358;2023-07-13T05:13:17;3.30;;;1.80;;
5285;SDS011;2665;53.112;7.358;2023-07-13T05:15:43;10.93;;;1.93;;
5285;SDS011;2665;53.112;7.358;2023-07-13T05:18:09;6.37;;;1.93;;
5285;SDS011;2665;53.112;7.358;2023-07-13T05:20:35;11.87;;;2.33;;
5285;SDS011;2665;53.112;7.358;2023-07-13T05:23:01;5.53;;;2.17;;
5285;SDS011;2665;53.112;7.358;2023-07-13T05:25:28;9.43;;;1.87;;
5285;SDS011;2665;53.112;7.358;2023-07-13T05:27:54;8.07;;;2.00;;
5285;SDS011;2665;53.112;7.358;2023-07-13T05:30:20;5.90;;;1.77;;
5285;SDS011;2665;53.112;7.358;2023-07-13T05:32:46;5.43;;;2.37;;
5285;SDS011;2665;53.112;7.358;2023-07-13T05:35:12;4.33;;;2.03;;
5285;SDS011;2665;53.112;7.358;2023-07-13T05:37:38;6.40;;;2.23;;
5285;SDS011;2665;53.112;7.358;2023-07-13T05:40:04;10.83;;;2.17;;
5285;SDS011;2665;53.112;7.358;2023-07-13T05:42:30;10.27;;;2.10;;
5285;SDS011;2665;53.112;7.358;2023-07-13T05:44:57;5.43;;;2.20;;
5285;SDS011;2665;53.112;7.358;2023-07-13T05:47:23;6.83;;;1.73;;
5285;SDS011;2665;53.112;7.358;2023-07-13T05:49:49;3.70;;;1.90;;
5285;SDS011;2665;53.112;7.358;2023-07-13T05:52:15;7.60;;;2.27;;
5285;SDS011;2665;53.112;7.358;2023-07-13T05:54:41;6.43;;;1.83;;
5285;SDS011;2665;53.112;7.358;2023-07-13T05:57:07;10.77;;;2.40;;
5285;SDS011;2665;53.112;7.358;2023-07-13T05:59:33;9.00;;;2.60;;
5285;SDS011;2665;53.112;7.358;2023-07-13T06:01:59;9.07;;;2.50;;
5285;SDS011;2665;53.112;7.358;2023-07-13T06:04:25;4.97;;;1.73;;
5285;SDS011;2665;53.112;7.358;2023-07-13T06:06:51;14.27;;;2.40;;
5285;SDS011;2665;53.112;7.358;2023-07-13T06:09:17;2.90;;;1.80;;
5285;SDS011;2665;53.112;7.358;2023-07-13T06:11:43;4.20;;;2.00;;
5285;SDS011;2665;53.112;7.358;2023-07-13T06:14:10;8.10;;;3.10;;
5285;SDS011;2665;53.112;7.358;2023-07-13T06:16:36;4.00;;;2.00;;
5285;SDS011;2665;53.112;7.358;2023-07-13T06:19:02;4.83;;;2.10;;
5285;SDS011;2665;53.112;7.358;2023-07-13T06:21:28;6.47;;;2.80;;
5285;SDS011;2665;53.112;7.358;2023-07-13T06:23:54;6.63;;;2.40;;
5285;SDS011;2665;53.112;7.358;2023-07-13T06:26:20;4.43;;;2.07;;
5285;SDS011;2665;53.112;7.358;2023-07-13T06:28:47;7.10;;;2.70;;
5285;SDS011;2665;53.112;7.358;2023-07-13T06:31:13;12.33;;;2.77;;
5285;SDS011;2665;53.112;7.358;2023-07-13T06:33:39;9.87;;;2.30;;
5285;SDS011;2665;53.112;7.358;2023-07-13T06:36:06;5.97;;;2.47;;
5285;SDS011;2665;53.112;7.358;2023-07-13T06:38:33;4.50;;;2.47;;
5285;SDS011;2665;53.112;7.358;2023-07-13T06:40:59;7.97;;;2.70;;
5285;SDS011;2665;53.112;7.358;2023-07-13T06:43:25;8.50;;;2.03;;
5285;SDS011;2665;53.112;7.358;2023-07-13T06:45:54;6.67;;;1.80;;
5285;SDS011;2665;53.112;7.358;2023-07-13T06:48:20;7.23;;;2.30;;
5285;SDS011;2665;53.112;7.358;2023-07-13T06:50:47;4.20;;;1.90;;
5285;SDS011;2665;53.112;7.358;2023-07-13T06:53:13;5.33;;;2.10;;
5285;SDS011;2665;53.112;7.358;2023-07-13T06:55:39;4.23;;;1.97;;
5285;SDS011;2665;53.112;7.358;2023-07-13T06:58:06;9.70;;;2.20;;
5285;SDS011;2665;53.112;7.358;2023-07-13T07:00:32;6.03;;;2.13;;
5285;SDS011;2665;53.112;7.358;2023-07-13T07:02:57;14.23;;;2.40;;
5285;SDS011;2665;53.112;7.358;2023-07-13T07:05:23;5.80;;;2.53;;
5285;SDS011;2665;53.112;7.358;2023-07-13T07:07:49;5.63;;;2.00;;
5285;SDS011;2665;53.112;7.358;2023-07-13T07:10:16;12.20;;;2.70;;
5285;SDS011;2665;53.112;7.358;2023-07-13T07:12:42;6.17;;;1.83;;
5285;SDS011;2665;53.112;7.358;2023-07-13T07:15:07;5.33;;;1.87;;
5285;SDS011;2665;53.112;7.358;2023-07-13T07:17:33;5.37;;;1.60;;
5285;SDS011;2665;53.112;7.358;2023-07-13T07:19:59;8.20;;;2.30;;
5285;SDS011;2665;53.112;7.358;2023-07-13T07:22:24;4.90;;;1.70;;
5285;SDS011;2665;53.112;7.358;2023-07-13T07:24:53;4.90;;;1.57;;
5285;SDS011;2665;53.112;7.358;2023-07-13T07:27:19;7.90;;;1.90;;
5285;SDS011;2665;53.112;7.358;2023-07-13T07:29:45;14.93;;;3.50;;
5285;SDS011;2665;53.112;7.358;2023-07-13T07:32:11;6.23;;;2.17;;
5285;SDS011;2665;53.112;7.358;2023-07-13T07:34:36;4.30;;;2.00;;
5285;SDS011;2665;53.112;7.358;2023-07-13T07:37:02;8.20;;;1.93;;
5285;SDS011;2665;53.112;7.358;2023-07-13T07:39:28;4.93;;;1.80;;
5285;SDS011;2665;53.112;7.358;2023-07-13T07:41:54;7.10;;;1.93;;
5285;SDS011;2665;53.112;7.358;2023-07-13T07:44:20;4.73;;;2.00;;
5285;SDS011;2665;53.112;7.358;2023-07-13T07:46:46;3.70;;;1.63;;
5285;SDS011;2665;53.112;7.358;2023-07-13T07:49:12;4.97;;;2.20;;
5285;SDS011;2665;53.112;7.358;2023-07-13T07:51:38;2.70;;;1.33;;
5285;SDS011;2665;53.112;7.358;2023-07-13T07:54:04;4.53;;;1.50;;
5285;SDS011;2665;53.112;7.358;2023-07-13T07:56:30;9.80;;;2.00;;
5285;SDS011;2665;53.112;7.358;2023-07-13T07:58:56;8.60;;;1.60;;
5285;SDS011;2665;53.112;7.358;2023-07-13T08:01:22;6.33;;;2.97;;
5285;SDS011;2665;53.112;7.358;2023-07-13T08:03:48;7.20;;;2.00;;
5285;SDS011;2665;53.112;7.358;2023-07-13T08:06:14;5.50;;;1.63;;
5285;SDS011;2665;53.112;7.358;2023-07-13T08:08:39;4.87;;;1.73;;
5285;SDS011;2665;53.112;7.358;2023-07-13T08:11:05;4.77;;;1.20;;
5285;SDS011;2665;53.112;7.358;2023-07-13T08:13:33;2.83;;;1.10;;
5285;SDS011;2665;53.112;7.358;2023-07-13T08:15:59;4.00;;;1.90;;
5285;SDS011;2665;53.112;7.358;2023-07-13T08:18:25;2.43;;;1.40;;
5285;SDS011;2665;53.112;7.358;2023-07-13T08:20:50;2.20;;;1.07;;
5285;SDS011;2665;53.112;7.358;2023-07-13T08:23:17;2.20;;;1.10;;
5285;SDS011;2665;53.112;7.358;2023-07-13T08:25:49;5.43;;;1.40;;
5285;SDS011;2665;53.112;7.358;2023-07-13T08:28:19;3.90;;;1.37;;
5285;SDS011;2665;53.112;7.358;2023-07-13T08:30:46;3.90;;;1.33;;
5285;SDS011;2665;53.112;7.358;2023-07-13T08:33:14;6.83;;;1.50;;
5285;SDS011;2665;53.112;7.358;2023-07-13T08:35:41;5.67;;;1.70;;
5285;SDS011;2665;53.112;7.358;2023-07-13T08:38:06;3.60;;;1.77;;
5285;SDS011;2665;53.112;7.358;2023-07-13T08:40:32;6.30;;;1.63;;
5285;SDS011;2665;53.112;7.358;2023-07-13T08:42:59;6.10;;;1.40;;
5285;SDS011;2665;53.112;7.358;2023-07-13T08:45:28;5.97;;;1.63;;
5285;SDS011;2665;53.112;7.358;2023-07-13T08:48:04;4.40;;;1.40;;
5285;SDS011;2665;53.112;7.358;2023-07-13T08:50:39;2.87;;;1.40;;
5285;SDS011;2665;53.112;7.358;2023-07-13T08:53:33;6.37;;;1.50;;
5285;SDS011;2665;53.112;7.358;2023-07-13T08:56:02;4.50;;;1.80;;
5285;SDS011;2665;53.112;7.358;2023-07-13T08:58:32;2.53;;;1.57;;
5285;SDS011;2665;53.112;7.358;2023-07-13T09:01:00;5.90;;;1.87;;
5285;SDS011;2665;53.112;7.358;2023-07-13T09:03:34;4.30;;;2.00;;
5285;SDS011;2665;53.112;7.358;2023-07-13T09:06:06;3.20;;;1.87;;
5285;SDS011;2665;53.112;7.358;2023-07-13T09:16:51;2.83;;;1.60;;
5285;SDS011;2665;53.112;7.358;2023-07-13T09:19:21;3.17;;;1.70;;
5285;SDS011;2665;53.112;7.358;2023-07-13T09:21:52;9.37;;;2.60;;
5285;SDS011;2665;53.112;7.358;2023-07-13T09:24:46;5.70;;;2.70;;
5285;SDS011;2665;53.112;7.358;2023-07-13T09:27:19;5.33;;;2.40;;
5285;SDS011;2665;53.112;7.358;2023-07-13T09:29:51;5.60;;;2.50;;
5285;SDS011;2665;53.112;7.358;2023-07-13T09:32:24;3.87;;;2.07;;
5285;SDS011;2665;53.112;7.358;2023-07-13T09:34:52;6.17;;;2.17;;
5285;SDS011;2665;53.112;7.358;2023-07-13T09:37:20;3.80;;;2.30;;
5285;SDS011;2665;53.112;7.358;2023-07-13T09:39:48;5.50;;;2.20;;
5285;SDS011;2665;53.112;7.358;2023-07-13T09:44:56;7.97;;;2.57;;
5285;SDS011;2665;53.112;7.358;2023-07-13T09:47:25;4.07;;;2.10;;
5285;SDS011;2665;53.112;7.358;2023-07-13T09:49:58;5.37;;;1.67;;
5285;SDS011;2665;53.112;7.358;2023-07-13T09:52:50;5.93;;;2.00;;
5285;SDS011;2665;53.112;7.358;2023-07-13T09:55:29;6.10;;;1.80;;
5285;SDS011;2665;53.112;7.358;2023-07-13T09:57:55;3.67;;;1.73;;
5285;SDS011;2665;53.112;7.358;2023-07-13T10:00:25;2.50;;;1.30;;
5285;SDS011;2665;53.112;7.358;2023-07-13T10:03:03;2.80;;;1.37;;
5285;SDS011;2665;53.112;7.358;2023-07-13T10:05:48;2.80;;;1.67;;
5285;SDS011;2665;53.112;7.358;2023-07-13T10:08:21;2.17;;;1.10;;
5285;SDS011;2665;53.112;7.358;2023-07-13T10:10:54;4.27;;;1.47;;
5285;SDS011;2665;53.112;7.358;2023-07-13T10:13:27;5.00;;;1.50;;
5285;SDS011;2665;53.112;7.358;2023-07-13T10:15:56;2.77;;;1.27;;
5285;SDS011;2665;53.112;7.358;2023-07-13T10:18:24;2.70;;;1.50;;
5285;SDS011;2665;53.112;7.358;2023-07-13T10:20:51;2.70;;;1.10;;
5285;SDS011;2665;53.112;7.358;2023-07-13T10:23:23;3.90;;;1.47;;
5285;SDS011;2665;53.112;7.358;2023-07-13T10:25:55;3.03;;;1.70;;
5285;SDS011;2665;53.112;7.358;2023-07-13T10:28:29;2.43;;;1.30;;
5285;SDS011;2665;53.112;7.358;2023-07-13T10:30:58;2.50;;;1.70;;
5285;SDS011;2665;53.112;7.358;2023-07-13T10:33:26;3.33;;;2.00;;
5285;SDS011;2665;53.112;7.358;2023-07-13T10:35:53;4.73;;;1.80;;
5285;SDS011;2665;53.112;7.358;2023-07-13T10:38:37;4.40;;;1.67;;
5285;SDS011;2665;53.112;7.358;2023-07-13T10:41:04;2.87;;;1.43;;
5285;SDS011;2665;53.112;7.358;2023-07-13T10:43:33;3.80;;;1.67;;
5285;SDS011;2665;53.112;7.358;2023-07-13T10:46:16;7.40;;;1.80;;
5285;SDS011;2665;53.112;7.358;2023-07-13T10:48:44;4.03;;;2.00;;
5285;SDS011;2665;53.112;7.358;2023-07-13T10:51:15;2.30;;;1.50;;
5285;SDS011;2665;53.112;7.358;2023-07-13T10:53:42;4.63;;;1.80;;
5285;SDS011;2665;53.112;7.358;2023-07-13T10:56:42;3.10;;;1.20;;
5285;SDS011;2665;53.112;7.358;2023-07-13T10:59:11;6.20;;;1.30;;
5285;SDS011;2665;53.112;7.358;2023-07-13T11:04:42;3.20;;;1.30;;
5285;SDS011;2665;53.112;7.358;2023-07-13T11:07:22;5.23;;;1.00;;
5285;SDS011;2665;53.112;7.358;2023-07-13T11:09:54;2.43;;;1.17;;
5285;SDS011;2665;53.112;7.358;2023-07-13T11:15:10;2.23;;;1.50;;
5285;SDS011;2665;53.112;7.358;2023-07-13T11:17:45;3.00;;;1.57;;
5285;SDS011;2665;53.112;7.358;2023-07-13T11:22:46;3.97;;;1.40;;
5285;SDS011;2665;53.112;7.358;2023-07-13T11:25:21;2.67;;;1.30;;
5285;SDS011;2665;53.112;7.358;2023-07-13T11:30:38;2.43;;;1.30;;
5285;SDS011;2665;53.112;7.358;2023-07-13T11:33:23;2.73;;;1.20;;
5285;SDS011;2665;53.112;7.358;2023-07-13T11:36:05;4.43;;;1.00;;
5285;SDS011;2665;53.112;7.358;2023-07-13T11:38:41;2.40;;;1.30;;
5285;SDS011;2665;53.112;7.358;2023-07-13T11:43:51;3.40;;;1.13;;
5285;SDS011;2665;53.112;7.358;2023-07-13T11:46:22;2.60;;;1.40;;
5285;SDS011;2665;53.112;7.358;2023-07-13T11:48:51;4.40;;;1.17;;
5285;SDS011;2665;53.112;7.358;2023-07-13T11:51:25;3.17;;;1.47;;
5285;SDS011;2665;53.112;7.358;2023-07-13T11:54:46;4.73;;;1.50;;
5285;SDS011;2665;53.112;7.358;2023-07-13T11:57:03;1.90;;;0.90;;
5285;SDS011;2665;53.112;7.358;2023-07-13T11:59:42;2.07;;;1.00;;
5285;SDS011;2665;53.112;7.358;2023-07-13T12:02:13;1.90;;;0.97;;
5285;SDS011;2665;53.112;7.358;2023-07-13T12:04:45;5.23;;;1.90;;
5285;SDS011;2665;53.112;7.358;2023-07-13T12:07:15;2.40;;;0.90;;
5285;SDS011;2665;53.112;7.358;2023-07-13T12:09:42;2.07;;;0.97;;
5285;SDS011;2665;53.112;7.358;2023-07-13T12:12:12;2.30;;;0.87;;
5285;SDS011;2665;53.112;7.358;2023-07-13T12:14:38;4.43;;;1.30;;
5285;SDS011;2665;53.112;7.358;2023-07-13T12:17:11;2.90;;;1.10;;
5285;SDS011;2665;53.112;7.358;2023-07-13T12:19:41;2.60;;;1.13;;
5285;SDS011;2665;53.112;7.358;2023-07-13T12:22:08;2.40;;;1.43;;
5285;SDS011;2665;53.112;7.358;2023-07-13T12:24:37;2.63;;;1.10;;
5285;SDS011;2665;53.112;7.358;2023-07-13T12:27:04;3.80;;;1.37;;
5285;SDS011;2665;53.112;7.358;2023-07-13T12:29:33;6.33;;;0.90;;
5285;SDS011;2665;53.112;7.358;2023-07-13T12:31:59;4.30;;;1.07;;
5285;SDS011;2665;53.112;7.358;2023-07-13T12:34:26;3.27;;;1.13;;
5285;SDS011;2665;53.112;7.358;2023-07-13T12:36:59;3.60;;;1.20;;
5285;SDS011;2665;53.112;7.358;2023-07-13T12:39:35;2.90;;;1.40;;
5285;SDS011;2665;53.112;7.358;2023-07-13T12:42:16;3.20;;;1.33;;
5285;SDS011;2665;53.112;7.358;2023-07-13T12:44:43;1.80;;;0.97;;
5285;SDS011;2665;53.112;7.358;2023-07-13T12:47:11;5.07;;;1.33;;
5285;SDS011;2665;53.112;7.358;2023-07-13T12:49:43;2.20;;;1.20;;
5285;SDS011;2665;53.112;7.358;2023-07-13T12:52:14;2.37;;;1.10;;
5285;SDS011;2665;53.112;7.358;2023-07-13T12:54:52;4.57;;;1.23;;
5285;SDS011;2665;53.112;7.358;2023-07-13T12:57:25;3.30;;;0.83;;
5285;SDS011;2665;53.112;7.358;2023-07-13T12:59:52;3.60;;;1.40;;
5285;SDS011;2665;53.112;7.358;2023-07-13T13:02:21;4.03;;;1.13;;
5285;SDS011;2665;53.112;7.358;2023-07-13T13:04:54;3.07;;;1.30;;
5285;SDS011;2665;53.112;7.358;2023-07-13T13:07:21;3.00;;;1.10;;
5285;SDS011;2665;53.112;7.358;2023-07-13T13:09:46;3.03;;;1.30;;
5285;SDS011;2665;53.112;7.358;2023-07-13T13:12:12;5.40;;;1.17;;
5285;SDS011;2665;53.112;7.358;2023-07-13T13:14:38;4.17;;;1.70;;
5285;SDS011;2665;53.112;7.358;2023-07-13T13:17:04;2.40;;;1.10;;
5285;SDS011;2665;53.112;7.358;2023-07-13T13:19:48;3.30;;;1.40;;
5285;SDS011;2665;53.112;7.358;2023-07-13T13:22:15;2.50;;;1.60;;
5285;SDS011;2665;53.112;7.358;2023-07-13T13:24:40;3.10;;;1.70;;
5285;SDS011;2665;53.112;7.358;2023-07-13T13:27:09;2.53;;;1.20;;
5285;SDS011;2665;53.112;7.358;2023-07-13T13:29:40;5.07;;;1.70;;
5285;SDS011;2665;53.112;7.358;2023-07-13T13:32:09;2.63;;;1.60;;
5285;SDS011;2665;53.112;7.358;2023-07-13T13:34:39;4.50;;;1.27;;
5285;SDS011;2665;53.112;7.358;2023-07-13T13:37:09;4.67;;;2.20;;
5285;SDS011;2665;53.112;7.358;2023-07-13T13:39:43;2.53;;;1.30;;
5285;SDS011;2665;53.112;7.358;2023-07-13T13:42:09;3.30;;;1.53;;
5285;SDS011;2665;53.112;7.358;2023-07-13T13:44:35;6.63;;;1.77;;
5285;SDS011;2665;53.112;7.358;2023-07-13T13:47:01;2.23;;;1.30;;
5285;SDS011;2665;53.112;7.358;2023-07-13T13:49:27;2.20;;;1.30;;
5285;SDS011;2665;53.112;7.358;2023-07-13T13:51:55;2.43;;;1.30;;
5285;SDS011;2665;53.112;7.358;2023-07-13T13:54:22;3.70;;;1.40;;
5285;SDS011;2665;53.112;7.358;2023-07-13T13:56:49;2.83;;;1.73;;
5285;SDS011;2665;53.112;7.358;2023-07-13T13:59:16;5.60;;;1.20;;
5285;SDS011;2665;53.112;7.358;2023-07-13T14:01:44;3.20;;;1.20;;
5285;SDS011;2665;53.112;7.358;2023-07-13T14:04:15;3.30;;;1.20;;
5285;SDS011;2665;53.112;7.358;2023-07-13T14:06:43;2.10;;;0.77;;
5285;SDS011;2665;53.112;7.358;2023-07-13T14:09:13;2.90;;;0.80;;
5285;SDS011;2665;53.112;7.358;2023-07-13T14:11:40;1.93;;;0.90;;
5285;SDS011;2665;53.112;7.358;2023-07-13T14:14:09;1.90;;;0.63;;
5285;SDS011;2665;53.112;7.358;2023-07-13T14:16:40;3.30;;;1.03;;
5285;SDS011;2665;53.112;7.358;2023-07-13T14:19:08;2.00;;;0.90;;
5285;SDS011;2665;53.112;7.358;2023-07-13T14:21:37;2.10;;;0.90;;
5285;SDS011;2665;53.112;7.358;2023-07-13T14:24:03;4.37;;;0.90;;
5285;SDS011;2665;53.112;7.358;2023-07-13T14:26:29;7.87;;;1.20;;
5285;SDS011;2665;53.112;7.358;2023-07-13T14:28:57;2.00;;;0.60;;
5285;SDS011;2665;53.112;7.358;2023-07-13T14:31:24;2.63;;;0.80;;
5285;SDS011;2665;53.112;7.358;2023-07-13T14:33:50;1.97;;;0.73;;
5285;SDS011;2665;53.112;7.358;2023-07-13T14:38:42;2.70;;;0.90;;
5285;SDS011;2665;53.112;7.358;2023-07-13T14:41:08;3.43;;;1.00;;
5285;SDS011;2665;53.112;7.358;2023-07-13T14:43:34;3.00;;;0.80;;
5285;SDS011;2665;53.112;7.358;2023-07-13T14:46:00;2.27;;;0.70;;
5285;SDS011;2665;53.112;7.358;2023-07-13T14:48:26;2.20;;;0.90;;
5285;SDS011;2665;53.112;7.358;2023-07-13T14:50:53;2.23;;;0.97;;
5285;SDS011;2665;53.112;7.358;2023-07-13T14:53:25;2.83;;;1.03;;
5285;SDS011;2665;53.112;7.358;2023-07-13T14:55:54;2.53;;;0.80;;
5285;SDS011;2665;53.112;7.358;2023-07-13T14:58:20;7.63;;;0.87;;
5285;SDS011;2665;53.112;7.358;2023-07-13T15:00:45;5.40;;;0.70;;
5285;SDS011;2665;53.112;7.358;2023-07-13T15:03:19;3.80;;;1.10;;
5285;SDS011;2665;53.112;7.358;2023-07-13T15:05:47;2.03;;;0.73;;
5285;SDS011;2665;53.112;7.358;2023-07-13T15:08:14;3.57;;;0.90;;
5285;SDS011;2665;53.112;7.358;2023-07-13T15:10:40;1.90;;;0.80;;
5285;SDS011;2665;53.112;7.358;2023-07-13T15:13:19;2.53;;;0.70;;
5285;SDS011;2665;53.112;7.358;2023-07-13T15:15:50;2.00;;;0.60;;
5285;SDS011;2665;53.112;7.358;2023-07-13T15:18:18;2.40;;;0.73;;
5285;SDS011;2665;53.112;7.358;2023-07-13T15:20:46;2.10;;;1.00;;
5285;SDS011;2665;53.112;7.358;2023-07-13T15:23:14;3.30;;;1.20;;
5285;SDS011;2665;53.112;7.358;2023-07-13T15:25:41;2.23;;;1.03;;
5285;SDS011;2665;53.112;7.358;2023-07-13T15:28:09;2.67;;;0.90;;
5285;SDS011;2665;53.112;7.358;2023-07-13T15:30:41;3.20;;;1.27;;
5285;SDS011;2665;53.112;7.358;2023-07-13T15:33:17;4.03;;;1.00;;
5285;SDS011;2665;53.112;7.358;2023-07-13T15:35:54;2.47;;;0.90;;
5285;SDS011;2665;53.112;7.358;2023-07-13T15:38:24;3.63;;;0.77;;
5285;SDS011;2665;53.112;7.358;2023-07-13T15:40:53;3.53;;;0.87;;
5285;SDS011;2665;53.112;7.358;2023-07-13T15:43:20;2.20;;;1.07;;
5285;SDS011;2665;53.112;7.358;2023-07-13T15:45:46;3.50;;;1.10;;
5285;SDS011;2665;53.112;7.358;2023-07-13T15:48:19;2.10;;;1.13;;